Decoded Metar for KIPJ (LINCOLNTON in NC, USA) (IATA:IPJ) | Meteo·Mobile Aviation Weather
aviador You're here:

KIPJ Decoded Metar

LINCOLNTON in NC, USA
Report Time2018-12-10 10:25:00
UTC Time2018-12-10 10:51:18
Flight Rules ifr IFR
Wind020° at 03 kt
W.Decomp.*RWY 05: 2.7 kt HW 1.2 kt LCW
W.Rank020° ranks 13
Current wind is below 020° avg. (5.0)
Visibility6437 m
Phenomena:Light Rain
Clouds:Overcast 008 Hf
Ceiling800 ft
Temp02°C (ISA -11)
Dew Point02°C (100% RH)
AAT-0.8°C
QNH1016 hPa
Density Alt-495 ft
Elevation876 ft
Report Wrong Elevation
Raw Report
KIPJ 101025Z AUTO 02003KT 4SM -RA OVC008 02/02 A3000 RMK AO2 P0001
T00170015=

Extra information for KIPJ:More info

Metar Taf Metar & Taf Last 4 Metars F.Rules Stats Wind Profile Meteogram Temp Stats Airport Information Weather charts Add Link Nearby VenuesMetar ALERT Operation Metar Decoded Social comments

AIRNAV info for KIPJ